Norfolk, NE

4:22 PM CDT on August 23, 2016 (GMT -0500)
North Norfolk | | Change Station

Elev 1614 ft 42.05 °N, 97.44 °W | Updated 7 seconds ago

Mostly Cloudy
Mostly Cloudy
82.8 °F
Feels Like 87 °F
N
10.5
Wind Variable Wind from SSE
Gusts 12.3 mph

Today
High -- | Low -- °F
--% Chance of Precip.
Yesterday
High -- | Low -- °F
Precip. -- in
Pressure 29.76 in
Visibility 10.0 miles
Clouds Scattered Clouds 3100 ft
Scattered Clouds 4400 ft
Mostly Cloudy 5000 ft
Heat Index 87 °F
Dew Point 71 °F
Humidity 67%
Rainfall 1.11 in
Snow Depth Not available.
6:46 AM 8:17 PM
Waning Gibbous, 64% visible
METAR KOFK 232056Z AUTO 17013G22KT 10SM SCT031 SCT044 BKN050 29/22 A2980 RMK AO2 SLP078 T02890217 56014
Pressure 29.76 in
Visibility 10.0 miles
Clouds Scattered Clouds 3100 ft
Scattered Clouds 4400 ft
Mostly Cloudy 5000 ft
Heat Index 87 °F
Dew Point 71 °F
Humidity 67%
Rainfall 1.11 in
Snow Depth Not available.
6:46 AM 8:17 PM
Waning Gibbous, 64% visible
METAR KOFK 232056Z AUTO 17013G22KT 10SM SCT031 SCT044 BKN050 29/22 A2980 RMK AO2 SLP078 T02890217 56014

10-Day Weather Forecast

Almanac

Astronomy

Aug. 23, 2016 Rise Set
Actual Time
Civil Twilight
Nautical Twilight
Astronomical Twilight
Moon
Length of Visible Light
Length of Day
Tomorrow will be .
, % of the Moon is Illuminated

Today's Extremes

State Highs State Lows

Community

WunderPhotos

Upload Photos

1,934,464 photos uploaded!

WunderBlog® & News

Nearby

Air Quality

  Air Quality AQ Index Pollutant
Not available.

Snow Depth

Station Depth Elevation

Earthquake Activity

City Distance Mag. Time & Date
Minimum magnitude displayed is 2.5.

Coastal Water Temperatures

Place Temperature

Stations

Nearby Weather Stations

Station Location Temp. Windchill Dew Point Humidity Wind Precip. Elev Updated Type
                   

Watches & Warnings

There are currently no watches in effect.